createdAt,value
2024-01-30T00:00:20.701Z,1.77
2024-01-30T00:02:48.650Z,1.58
2024-01-30T00:05:16.770Z,1.25
2024-01-30T00:07:45.151Z,1.60
2024-01-30T00:10:13.195Z,1.50
2024-01-30T00:12:42.541Z,1.55
2024-01-30T00:15:10.895Z,1.60
2024-01-30T00:17:39.182Z,1.30
2024-01-30T00:20:10.262Z,1.80
2024-01-30T00:22:38.366Z,1.50
2024-01-30T00:25:06.699Z,1.55
2024-01-30T00:27:34.664Z,1.30
2024-01-30T00:30:04.044Z,1.48
2024-01-30T00:32:31.986Z,1.70
2024-01-30T00:35:00.246Z,1.60
2024-01-30T00:37:28.400Z,2.10
2024-01-30T00:39:56.420Z,1.40
2024-01-30T00:42:25.079Z,1.92
2024-01-30T00:44:53.056Z,1.30
2024-01-30T00:47:22.369Z,2.10
2024-01-30T00:49:50.855Z,1.85
2024-01-30T00:52:19.040Z,2.20
2024-01-30T00:54:47.050Z,1.50
2024-01-30T00:57:14.992Z,1.55
2024-01-30T00:59:42.960Z,2.10
2024-01-30T01:02:10.919Z,1.77
2024-01-30T01:04:40.341Z,1.43
2024-01-30T01:07:08.473Z,1.88
2024-01-30T01:09:36.563Z,1.20
2024-01-30T01:12:04.968Z,2.25
2024-01-30T01:14:32.927Z,1.88
2024-01-30T01:17:00.897Z,1.90
2024-01-30T01:19:29.257Z,2.00
2024-01-30T01:21:58.763Z,1.73
2024-01-30T01:24:26.735Z,1.77
2024-01-30T01:26:54.706Z,1.88
2024-01-30T01:29:29.473Z,2.40
2024-01-30T01:31:57.739Z,1.93
2024-01-30T01:34:29.932Z,1.85
2024-01-30T01:37:00.202Z,1.17
2024-01-30T01:39:28.206Z,1.33
2024-01-30T01:41:56.161Z,1.75
2024-01-30T01:44:24.140Z,2.30
2024-01-30T01:46:53.307Z,0.80
2024-01-30T01:49:22.893Z,0.80
2024-01-30T01:51:51.798Z,1.23
2024-01-30T01:54:21.777Z,0.40
2024-01-30T01:56:50.431Z,0.50
2024-01-30T01:59:19.910Z,0.60
2024-01-30T02:01:50.431Z,0.40
2024-01-30T02:04:18.647Z,0.50
2024-01-30T02:06:46.778Z,0.40
2024-01-30T02:09:14.787Z,0.40
2024-01-30T02:11:44.319Z,0.40
2024-01-30T02:14:12.288Z,0.40
2024-01-30T02:16:40.256Z,0.70
2024-01-30T02:19:08.865Z,0.70
2024-01-30T02:21:38.392Z,0.40
2024-01-30T02:24:07.788Z,0.57
2024-01-30T02:26:35.733Z,1.33
2024-01-30T02:29:03.711Z,0.57
2024-01-30T02:31:31.702Z,0.40
2024-01-30T02:33:59.679Z,0.67
2024-01-30T02:36:27.627Z,1.20
2024-01-30T02:38:56.925Z,0.70
2024-01-30T02:41:25.020Z,0.33
2024-01-30T02:43:53.085Z,0.40
2024-01-30T02:46:21.158Z,0.40
2024-01-30T02:48:49.320Z,0.40
2024-01-30T02:51:17.315Z,0.50
2024-01-30T02:53:45.265Z,0.60
2024-01-30T02:56:14.873Z,0.60
2024-01-30T02:58:43.055Z,0.50
2024-01-30T03:01:11.182Z,0.40
2024-01-30T03:03:39.301Z,1.17
2024-01-30T03:06:08.155Z,0.40
2024-01-30T03:08:37.251Z,0.50
2024-01-30T03:11:05.487Z,0.30
2024-01-30T03:13:34.862Z,0.40
2024-01-30T03:16:02.919Z,0.40
2024-01-30T03:18:31.004Z,0.40
2024-01-30T03:20:58.978Z,0.40
2024-01-30T03:23:26.925Z,1.63
2024-01-30T03:25:54.912Z,0.43
2024-01-30T03:28:22.936Z,0.60
2024-01-30T03:30:52.363Z,0.60
2024-01-30T03:33:20.351Z,0.83
2024-01-30T03:35:48.314Z,0.97
2024-01-30T03:38:16.266Z,0.80
2024-01-30T03:40:44.409Z,0.97
2024-01-30T03:43:12.430Z,0.40
2024-01-30T03:45:40.569Z,1.40
2024-01-30T03:48:10.343Z,0.43
2024-01-30T03:50:38.352Z,0.53
2024-01-30T03:53:06.431Z,0.40
2024-01-30T03:55:34.414Z,1.20
2024-01-30T03:58:02.443Z,0.77
2024-01-30T04:00:30.454Z,0.50
2024-01-30T04:02:58.503Z,0.53
2024-01-30T04:05:27.862Z,0.60
2024-01-30T04:07:55.893Z,0.60
2024-01-30T04:10:24.059Z,0.40
2024-01-30T04:12:52.722Z,0.40
2024-01-30T04:15:20.797Z,0.80
2024-01-30T04:17:48.829Z,0.40
2024-01-30T04:20:17.724Z,0.50
2024-01-30T04:22:47.791Z,0.63
2024-01-30T04:25:16.275Z,0.80
2024-01-30T04:27:44.300Z,0.30
2024-01-30T04:30:13.102Z,0.67
2024-01-30T04:32:41.121Z,0.47
2024-01-30T04:35:11.901Z,0.40
2024-01-30T04:37:40.420Z,0.47
2024-01-30T04:40:10.988Z,0.40
2024-01-30T04:42:39.108Z,0.50
2024-01-30T04:45:08.271Z,0.67
2024-01-30T04:47:36.256Z,0.50
2024-01-30T04:50:05.937Z,0.53
2024-01-30T04:52:34.210Z,0.60
2024-01-30T04:55:02.262Z,0.73
2024-01-30T04:57:32.143Z,0.40
2024-01-30T05:00:00.211Z,0.60
2024-01-30T05:02:29.157Z,0.47
2024-01-30T05:04:57.204Z,0.60
2024-01-30T05:07:26.446Z,0.50
2024-01-30T05:09:58.618Z,0.37
2024-01-30T05:12:27.423Z,0.70
2024-01-30T05:14:56.885Z,0.77
2024-01-30T05:17:24.845Z,0.60
2024-01-30T05:19:52.884Z,0.30
2024-01-30T05:22:21.164Z,0.60
2024-01-30T05:24:49.226Z,0.80
2024-01-30T05:27:17.199Z,0.50
2024-01-30T05:29:45.173Z,0.60
2024-01-30T05:32:14.539Z,0.40
2024-01-30T05:34:42.602Z,0.97
2024-01-30T05:37:10.671Z,0.40
2024-01-30T05:39:38.668Z,1.43
2024-01-30T05:42:07.102Z,0.63
2024-01-30T05:44:35.048Z,0.67
2024-01-30T05:47:03.032Z,0.43
2024-01-30T05:49:32.405Z,0.50
2024-01-30T05:52:00.583Z,0.90
2024-01-30T05:54:28.596Z,0.87
2024-01-30T05:56:56.575Z,0.50
2024-01-30T05:59:24.510Z,0.30
2024-01-30T06:01:52.598Z,2.20
2024-01-30T06:04:20.675Z,0.50
2024-01-30T06:06:50.168Z,0.50
2024-01-30T06:09:18.161Z,0.40
2024-01-30T06:11:46.136Z,0.50
2024-01-30T06:14:14.299Z,0.50
2024-01-30T06:16:42.303Z,0.40
2024-01-30T06:19:10.298Z,0.50
2024-01-30T06:21:39.481Z,0.40
2024-01-30T06:24:09.127Z,0.50
2024-01-30T06:26:37.081Z,0.77
2024-01-30T06:29:05.094Z,0.70
2024-01-30T06:31:33.309Z,0.60
2024-01-30T06:34:01.491Z,0.40
2024-01-30T06:36:29.505Z,0.70
2024-01-30T06:38:57.461Z,0.40
2024-01-30T06:41:26.812Z,0.50
2024-01-30T06:43:54.788Z,0.67
2024-01-30T06:46:22.844Z,0.30
2024-01-30T06:48:50.890Z,0.30
2024-01-30T06:51:18.907Z,1.27
2024-01-30T06:53:47.071Z,0.60
2024-01-30T06:56:15.081Z,0.40
2024-01-30T06:58:44.406Z,0.40
2024-01-30T07:01:13.074Z,0.40
2024-01-30T07:03:41.180Z,0.40
2024-01-30T07:06:09.257Z,0.40
2024-01-30T07:08:38.305Z,0.30
2024-01-30T07:11:06.924Z,0.40
2024-01-30T07:13:35.065Z,0.60
2024-01-30T07:16:04.838Z,0.40
2024-01-30T07:18:32.834Z,0.30
2024-01-30T07:21:00.822Z,0.40
2024-01-30T07:23:30.486Z,0.60
2024-01-30T07:25:58.635Z,0.60
2024-01-30T07:28:26.740Z,0.50
2024-01-30T07:30:54.867Z,0.63
2024-01-30T07:33:24.420Z,0.50
2024-01-30T07:35:54.186Z,0.47
2024-01-30T07:38:22.231Z,0.57
2024-01-30T07:40:50.268Z,0.40
2024-01-30T07:43:18.263Z,1.70
2024-01-30T07:45:46.450Z,1.10
2024-01-30T07:48:15.322Z,0.80
2024-01-30T07:50:44.797Z,0.80
2024-01-30T07:53:13.015Z,0.60
2024-01-30T07:55:40.997Z,0.87
2024-01-30T07:58:09.003Z,0.40
2024-01-30T08:00:38.097Z,0.93
2024-01-30T08:03:06.707Z,0.50
2024-01-30T08:05:34.793Z,0.40
2024-01-30T08:08:04.453Z,0.40
2024-01-30T08:10:32.704Z,0.77
2024-01-30T08:13:00.774Z,0.53
2024-01-30T08:15:28.757Z,0.60
2024-01-30T08:17:59.145Z,3.13
2024-01-30T08:20:27.398Z,0.87
2024-01-30T08:22:56.493Z,1.33
2024-01-30T08:25:25.940Z,1.40
2024-01-30T08:27:54.184Z,0.90
2024-01-30T08:30:22.193Z,1.90
2024-01-30T08:32:50.217Z,1.50
2024-01-30T08:35:18.309Z,1.13
2024-01-30T08:37:46.460Z,0.80
2024-01-30T08:40:14.808Z,0.87
2024-01-30T08:42:44.205Z,0.50
2024-01-30T08:45:12.494Z,1.00
2024-01-30T08:47:40.555Z,0.50
2024-01-30T08:50:09.768Z,0.97
2024-01-30T08:52:38.006Z,0.80
2024-01-30T08:55:06.794Z,1.87
2024-01-30T08:57:34.825Z,0.50
2024-01-30T09:00:07.712Z,0.50
2024-01-30T09:02:36.406Z,0.40
2024-01-30T09:05:05.031Z,0.63
2024-01-30T09:07:33.300Z,0.60
2024-01-30T09:10:01.439Z,0.60
2024-01-30T09:12:29.435Z,0.70
2024-01-30T09:14:57.399Z,0.80
2024-01-30T09:17:26.750Z,0.63
2024-01-30T09:19:55.017Z,0.50
2024-01-30T09:22:23.146Z,0.63
2024-01-30T09:24:51.197Z,0.80
2024-01-30T09:27:19.235Z,0.40
2024-01-30T09:29:47.198Z,1.07
2024-01-30T09:32:15.178Z,1.00
2024-01-30T09:34:44.587Z,0.97
2024-01-30T09:37:13.358Z,1.00
2024-01-30T09:39:41.398Z,0.90
2024-01-30T09:42:17.846Z,0.70
2024-01-30T09:44:46.296Z,0.53
2024-01-30T09:47:14.683Z,0.67
2024-01-30T09:49:45.953Z,0.50
2024-01-30T09:52:14.172Z,0.47
2024-01-30T09:54:43.748Z,0.40
2024-01-30T09:57:13.442Z,0.67
2024-01-30T09:59:41.461Z,0.70
2024-01-30T10:02:10.422Z,0.60
2024-01-30T10:04:38.588Z,0.80
2024-01-30T10:07:09.466Z,0.50
2024-01-30T10:09:38.943Z,0.70
2024-01-30T10:12:08.732Z,0.50
2024-01-30T10:14:39.757Z,1.33
2024-01-30T10:17:17.393Z,0.60
2024-01-30T10:19:50.174Z,0.80
2024-01-30T10:22:19.695Z,0.77
2024-01-30T10:24:47.987Z,0.80
2024-01-30T10:27:15.981Z,0.60
2024-01-30T10:29:44.157Z,1.30
2024-01-30T10:32:12.129Z,0.90
2024-01-30T10:34:40.207Z,1.90
2024-01-30T10:37:13.942Z,1.40
2024-01-30T10:39:44.980Z,0.60
2024-01-30T10:42:14.664Z,0.80
2024-01-30T10:44:55.754Z,0.53
2024-01-30T10:59:49.314Z,0.53
2024-01-30T11:02:17.777Z,0.63
2024-01-30T11:04:46.340Z,0.63
2024-01-30T11:07:18.272Z,0.97
2024-01-30T11:09:54.216Z,0.97
2024-01-30T11:12:26.018Z,0.80
2024-01-30T11:15:06.185Z,1.70
2024-01-30T11:17:47.644Z,1.40
2024-01-30T11:20:18.045Z,1.23
2024-01-30T11:22:48.929Z,0.60
2024-01-30T11:25:19.371Z,0.60
2024-01-30T11:27:48.605Z,0.80
2024-01-30T11:30:24.822Z,0.63
2024-01-30T11:33:03.874Z,1.23
2024-01-30T11:35:34.030Z,0.60
2024-01-30T11:38:02.700Z,1.20
2024-01-30T11:40:34.174Z,0.70
2024-01-30T11:43:03.814Z,0.60
2024-01-30T11:45:32.748Z,0.80
2024-01-30T11:48:04.354Z,0.90
2024-01-30T11:50:32.583Z,1.03
2024-01-30T11:53:01.030Z,1.00
2024-01-30T11:55:34.252Z,0.73
2024-01-30T11:58:05.396Z,0.50
2024-01-30T12:00:34.491Z,1.00
2024-01-30T12:03:03.297Z,0.70
2024-01-30T12:05:31.711Z,0.70
2024-01-30T12:08:01.569Z,1.57
2024-01-30T12:10:30.749Z,1.17
2024-01-30T12:12:59.958Z,0.83
2024-01-30T12:15:29.562Z,0.90
2024-01-30T12:18:06.499Z,1.03
2024-01-30T12:20:34.746Z,0.97
2024-01-30T12:23:02.918Z,0.70
2024-01-30T12:25:31.350Z,1.40
2024-01-30T12:28:00.338Z,0.80
2024-01-30T12:30:31.040Z,0.60
2024-01-30T12:32:59.341Z,0.70
2024-01-30T12:35:29.447Z,0.80
2024-01-30T12:37:59.523Z,1.10
2024-01-30T12:40:27.763Z,0.80
2024-01-30T12:42:55.953Z,0.77
2024-01-30T12:45:24.527Z,1.00
2024-01-30T12:47:54.157Z,0.90
2024-01-30T12:50:22.382Z,0.90
2024-01-30T12:52:50.897Z,0.80
2024-01-30T12:55:19.425Z,1.10
2024-01-30T12:57:47.833Z,1.97
2024-01-30T13:00:18.185Z,1.43
2024-01-30T13:02:46.539Z,1.93
2024-01-30T13:05:16.607Z,1.23
2024-01-30T13:07:44.971Z,1.20
2024-01-30T13:10:13.028Z,2.00
2024-01-30T13:12:41.135Z,1.00
2024-01-30T13:15:09.819Z,1.33
2024-01-30T13:17:38.321Z,0.80
2024-01-30T13:20:11.859Z,1.23
2024-01-30T13:22:41.871Z,1.03
2024-01-30T13:25:10.201Z,0.90
2024-01-30T13:27:39.509Z,1.13
2024-01-30T13:30:10.295Z,1.43
2024-01-30T13:32:39.015Z,0.87
2024-01-30T13:35:07.568Z,0.90
2024-01-30T13:37:35.877Z,0.97
2024-01-30T13:40:09.734Z,1.10
2024-01-30T13:42:40.082Z,0.73
2024-01-30T13:45:10.993Z,1.20
2024-01-30T13:47:39.350Z,1.13
2024-01-30T13:50:08.816Z,1.13
2024-01-30T13:52:43.792Z,1.10
2024-01-30T13:55:14.756Z,1.10
2024-01-30T13:57:43.189Z,0.97
2024-01-30T14:00:12.400Z,1.43
2024-01-30T14:02:41.030Z,0.67
2024-01-30T14:05:09.912Z,1.53
2024-01-30T14:07:40.466Z,1.00
2024-01-30T14:10:11.615Z,1.10
2024-01-30T14:12:43.818Z,0.90
2024-01-30T14:15:19.798Z,1.30
2024-01-30T14:17:55.669Z,1.50
2024-01-30T14:20:24.047Z,0.80
2024-01-30T14:22:52.720Z,1.43
2024-01-30T14:25:21.268Z,1.63
2024-01-30T14:27:50.757Z,2.27
2024-01-30T14:30:19.424Z,1.40
2024-01-30T14:32:48.063Z,1.47
2024-01-30T14:35:16.361Z,1.87
2024-01-30T14:37:44.499Z,1.17
2024-01-30T14:40:12.697Z,1.60
2024-01-30T14:42:40.732Z,1.03
2024-01-30T14:45:10.582Z,1.77
2024-01-30T14:47:38.907Z,2.20
2024-01-30T14:50:08.970Z,1.07
2024-01-30T14:52:37.935Z,1.73
2024-01-30T14:55:07.032Z,3.07
2024-01-30T14:57:36.394Z,1.80
2024-01-30T15:00:05.463Z,2.17
2024-01-30T15:02:34.880Z,0.97
2024-01-30T15:05:03.664Z,1.23
2024-01-30T15:07:36.670Z,2.00
2024-01-30T15:10:09.157Z,2.13
2024-01-30T15:12:37.503Z,1.67
2024-01-30T15:15:06.853Z,2.57
2024-01-30T15:17:36.282Z,1.30
2024-01-30T15:20:05.415Z,1.10
2024-01-30T15:22:33.689Z,3.30
2024-01-30T15:25:01.916Z,1.63
2024-01-30T15:27:30.988Z,1.47
2024-01-30T15:29:59.648Z,1.63
2024-01-30T15:32:27.648Z,1.93
2024-01-30T15:34:58.022Z,1.20
2024-01-30T15:37:26.273Z,1.60
2024-01-30T15:39:54.367Z,1.37
2024-01-30T15:42:22.538Z,1.70
2024-01-30T15:44:51.026Z,2.13
2024-01-30T15:47:19.036Z,2.00
2024-01-30T15:49:47.210Z,1.27
2024-01-30T15:52:18.413Z,0.90
2024-01-30T15:54:46.731Z,0.60
2024-01-30T15:57:15.076Z,1.30
2024-01-30T15:59:44.401Z,2.10
2024-01-30T16:02:12.464Z,1.00
2024-01-30T16:04:40.619Z,1.27
2024-01-30T16:07:08.846Z,0.70
2024-01-30T16:09:38.202Z,2.07
2024-01-30T16:12:06.762Z,1.27
2024-01-30T16:14:37.305Z,1.60
2024-01-30T16:17:05.896Z,1.93
2024-01-30T16:19:34.933Z,1.60
2024-01-30T16:22:03.040Z,2.50
2024-01-30T16:24:31.249Z,2.23
2024-01-30T16:27:00.604Z,2.23
2024-01-30T16:29:28.916Z,2.43
2024-01-30T16:31:57.256Z,3.87
2024-01-30T16:34:25.332Z,2.80
2024-01-30T16:36:53.478Z,2.13
2024-01-30T16:39:21.579Z,1.27
2024-01-30T16:41:50.249Z,2.23
2024-01-30T16:44:19.725Z,1.40
2024-01-30T16:46:49.619Z,1.40
2024-01-30T16:49:18.460Z,1.23
2024-01-30T16:51:46.508Z,1.90
2024-01-30T16:54:14.483Z,1.33
2024-01-30T16:56:48.800Z,1.73
2024-01-30T16:59:16.905Z,1.23
2024-01-30T17:01:49.006Z,1.00
2024-01-30T17:04:18.802Z,0.70
2024-01-30T17:06:47.031Z,0.67
2024-01-30T17:09:16.144Z,1.27
2024-01-30T17:11:44.802Z,0.80
2024-01-30T17:14:15.151Z,0.80
2024-01-30T17:16:43.266Z,0.50
2024-01-30T17:19:12.939Z,0.83
2024-01-30T17:21:40.964Z,0.60
2024-01-30T17:24:09.450Z,0.50
2024-01-30T17:29:06.406Z,0.57
2024-01-30T17:31:34.538Z,1.17
2024-01-30T17:34:02.741Z,0.70
2024-01-30T17:36:32.212Z,5.63
2024-01-30T17:39:02.989Z,2.20
2024-01-30T17:41:31.699Z,1.97
2024-01-30T17:43:59.736Z,1.33
2024-01-30T17:46:27.798Z,1.20
2024-01-30T17:48:55.917Z,1.10
2024-01-30T17:51:23.942Z,1.50
2024-01-30T17:53:53.272Z,2.07
2024-01-30T17:56:21.325Z,4.30
2024-01-30T17:58:49.299Z,6.43
2024-01-30T18:01:17.420Z,5.73
2024-01-30T18:03:45.461Z,4.50
2024-01-30T18:06:16.565Z,3.50
2024-01-30T18:08:45.177Z,3.87
2024-01-30T18:11:14.494Z,3.23
2024-01-30T18:13:42.535Z,4.03
2024-01-30T18:16:10.616Z,2.77
2024-01-30T18:18:38.701Z,1.00
2024-01-30T18:21:08.265Z,1.53
2024-01-30T18:23:36.283Z,0.73
2024-01-30T18:26:04.622Z,1.27
2024-01-30T18:28:34.388Z,1.00
2024-01-30T18:31:02.540Z,2.67
2024-01-30T18:33:30.539Z,1.73
2024-01-30T18:35:58.519Z,1.63
2024-01-30T18:38:26.561Z,0.80
2024-01-30T18:40:54.657Z,0.80
2024-01-30T18:43:22.623Z,0.60
2024-01-30T18:45:55.600Z,0.83
2024-01-30T18:48:23.848Z,1.00
2024-01-30T18:50:51.859Z,1.37
2024-01-30T18:53:19.845Z,0.50
2024-01-30T18:55:47.965Z,0.60
2024-01-30T18:58:16.999Z,0.80
2024-01-30T19:00:48.192Z,1.23
2024-01-30T19:03:18.877Z,0.70
2024-01-30T19:05:47.930Z,0.60
2024-01-30T19:08:17.244Z,0.90
2024-01-30T19:10:46.715Z,0.67
2024-01-30T19:13:16.093Z,0.50
2024-01-30T19:15:45.456Z,0.60
2024-01-30T19:18:14.132Z,1.00
2024-01-30T19:20:44.366Z,1.63
2024-01-30T19:23:12.398Z,1.50
2024-01-30T19:25:42.524Z,0.50
2024-01-30T19:28:13.320Z,0.60
2024-01-30T19:30:41.476Z,0.87
2024-01-30T19:33:09.577Z,1.73
2024-01-30T19:35:37.876Z,1.60
2024-01-30T19:38:09.477Z,0.80
2024-01-30T19:40:37.658Z,0.50
2024-01-30T19:43:06.163Z,0.70
2024-01-30T19:45:34.978Z,2.37
2024-01-30T19:48:03.009Z,1.30
2024-01-30T19:50:31.062Z,0.80
2024-01-30T19:52:59.025Z,0.40
2024-01-30T19:55:28.425Z,1.27
2024-01-30T19:57:56.583Z,1.63
2024-01-30T20:00:24.827Z,0.60
2024-01-30T20:02:52.857Z,0.90
2024-01-30T20:05:21.016Z,2.07
2024-01-30T20:07:49.293Z,1.17
2024-01-30T20:10:17.524Z,1.50
2024-01-30T20:12:46.945Z,0.67
2024-01-30T20:15:16.085Z,1.40
2024-01-30T20:17:45.356Z,1.30
2024-01-30T20:20:17.733Z,1.10
2024-01-30T20:22:47.172Z,1.50
2024-01-30T20:25:19.125Z,1.23
2024-01-30T20:27:49.848Z,2.03
2024-01-30T20:30:19.079Z,0.80
2024-01-30T20:32:48.038Z,2.20
2024-01-30T20:35:16.572Z,2.13
2024-01-30T20:37:46.613Z,0.80
2024-01-30T20:40:14.785Z,1.40
2024-01-30T20:42:42.888Z,1.13
2024-01-30T20:45:12.264Z,1.87
2024-01-30T20:47:40.355Z,1.63
2024-01-30T20:50:09.012Z,1.10
2024-01-30T20:52:37.024Z,1.33
2024-01-30T20:55:05.583Z,1.23
2024-01-30T20:57:33.597Z,1.47
2024-01-30T21:00:01.617Z,1.10
2024-01-30T21:02:30.951Z,1.27
2024-01-30T21:04:58.068Z,1.47
2024-01-30T21:07:26.226Z,0.60
2024-01-30T21:09:54.395Z,0.90
2024-01-30T21:12:22.397Z,0.50
2024-01-30T21:14:52.280Z,0.90
2024-01-30T21:17:20.539Z,0.87
2024-01-30T21:19:50.117Z,0.90
2024-01-30T21:22:18.291Z,0.63
2024-01-30T21:24:46.549Z,0.97
2024-01-30T21:27:14.533Z,0.60
2024-01-30T21:29:42.942Z,0.63
2024-01-30T21:32:10.911Z,0.83
2024-01-30T21:34:38.996Z,0.50
2024-01-30T21:37:08.368Z,2.67
2024-01-30T21:39:38.281Z,1.87
2024-01-30T21:42:06.456Z,3.17
2024-01-30T21:44:34.539Z,1.10
2024-01-30T21:47:02.581Z,1.80
2024-01-30T21:49:30.599Z,0.60
2024-01-30T21:51:58.663Z,0.60
2024-01-30T21:54:27.996Z,0.90
2024-01-30T21:56:56.005Z,0.60
2024-01-30T21:59:24.005Z,0.80
2024-01-30T22:01:52.022Z,0.70
2024-01-30T22:04:22.259Z,0.63
2024-01-30T22:06:50.520Z,0.50
2024-01-30T22:09:18.549Z,0.63
2024-01-30T22:11:47.893Z,0.70
2024-01-30T22:14:16.121Z,0.60
2024-01-30T22:16:44.166Z,2.00
2024-01-30T22:19:14.426Z,2.17
2024-01-30T22:21:43.018Z,0.80
2024-01-30T22:24:11.014Z,2.27
2024-01-30T22:26:42.073Z,0.87
2024-01-30T22:29:11.896Z,0.80
2024-01-30T22:31:40.172Z,0.60
2024-01-30T22:34:08.256Z,1.00
2024-01-30T22:36:36.314Z,0.50
2024-01-30T22:39:05.930Z,1.40
2024-01-30T22:41:34.006Z,0.80
2024-01-30T22:44:02.342Z,0.63
2024-01-30T22:46:31.847Z,0.57
2024-01-30T22:48:59.897Z,1.17
2024-01-30T22:51:29.288Z,0.60
2024-01-30T22:53:57.389Z,0.90
2024-01-30T22:56:25.383Z,1.50
2024-01-30T22:58:53.361Z,1.53
2024-01-30T23:01:21.496Z,1.30
2024-01-30T23:03:49.905Z,1.27
2024-01-30T23:06:18.020Z,0.93
2024-01-30T23:08:46.329Z,1.60
2024-01-30T23:11:14.541Z,0.50
2024-01-30T23:13:43.366Z,1.23
2024-01-30T23:16:11.395Z,0.90
2024-01-30T23:18:39.474Z,1.07
2024-01-30T23:21:08.857Z,0.90
2024-01-30T23:23:36.822Z,1.33
2024-01-30T23:26:05.439Z,0.60
2024-01-30T23:28:33.700Z,0.73
2024-01-30T23:31:01.964Z,1.33
2024-01-30T23:33:30.379Z,1.40
2024-01-30T23:35:58.467Z,1.17
2024-01-30T23:38:27.802Z,1.53
2024-01-30T23:40:55.814Z,1.00
2024-01-30T23:43:25.631Z,0.60
2024-01-30T23:45:54.656Z,0.50
2024-01-30T23:48:23.146Z,1.67
2024-01-30T23:50:52.421Z,0.70
2024-01-30T23:53:20.534Z,1.00
2024-01-30T23:55:49.886Z,0.60
2024-01-30T23:58:17.929Z,1.73
